메인 페이지
METAR-TAF:

METAR-TAF

공항 :

카스타모누, 터키

위도: 41-19-01N, 경도: 33-47-46E, 고도: 1073m

현재 날씨관측

예보는 2 시간 30분 전, 12:50시(UTC)에 발표되었습니다.
북북동7kt풍과 동북동풍을 오가는
온도 14°C
습도 67%
기압 1024 hPa
시정 10km 이상
고도 3000ft 상공 구름 조금

METAR: LTAL 211250Z 03007KT 360V070 9999 FEW030 14/08 Q1024

시각: 18:20 (15:20 UTC)

예보

예보는 1 시간 40분 전, 13:40시(UTC)에 발표되었습니다.
예보 대상 시간: 21일 15시부터 21일 24시까지 (UTC)
북북동7kt
시정 10km 이상
고도 500ft 상공 구름 보통
고도 2800ft 상공 구름 보통

TAF: LTAL 211340Z 2115/2124 03007KT 9999 SCT005 SCT028

4,000개 이상의 공항 관측 자료 및 예보 (METAR 및 TAF 보고).

지도상에서 검색 가능한 기상관측소가 노란 점과 빨간 점으로 표시되어 있습니다.

기상관측소 명을 보려면 표시 위로 마우스를 이동하세요.

날씨 관측과 예보를 보려면 클릭하세요.

지도 변경 : 확대하려면 엑스 표시가 있는 녹색 버튼, 축소하려면 빼기 표시가 있는 녹색 버튼, 다음 페이지의 지도를 보려면 녹색 화살표를 클릭하세요.


METAR-TAF: